Quick Links (Output Below):   Max & Min Temps   /   Climate Reports   /   Zone Forecasts
River Forecasts   /   Forestry Forecasts   /   Aviation Forecasts   /   Radars   /   Features

Terminal Aerodrome Forecast (Texarkana)

Pick a Site:
Arkadelphia | El Dorado | Fayetteville | Fort Smith | Harrison | Highfill | Hot Springs | Jonesboro
Little Rock | Monticello | Mountain Home | Pine Bluff | Texarkana
 Forecast 

KTXK 230523Z 2306/2406 VRB03KT P6SM SKC
     FM231500 15007KT P6SM FEW040
     FM240000 14005KT P6SM FEW050 SCT250=


 Latest METARs (Observations) 
How to Decode METARs
07Z KTXK 230653Z AUTO 00000KT 10SM CLR 16/12 A2994 RMK AO2 SLP135
         T01560122
         
06Z KTXK 230553Z AUTO 00000KT 10SM CLR 16/13 A2995 RMK AO2 SLP137
         T01610128 10261 20150 402720133 50002
         
05Z KTXK 230453Z AUTO 09004KT 10SM CLR 16/13 A2995 RMK AO2 SLP138
         T01610128
         
04Z KTXK 230353Z AUTO 00000KT 10SM CLR 18/11 A2994 RMK AO2 SLP136
         T01780111
         
03Z KTXK 230253Z AUTO 00000KT 10SM CLR 18/12 A2994 RMK AO2 SLP135
         T01830122 53008
         
02Z KTXK 230153Z 00000KT 10SM CLR 18/13 A2993 RMK AO2 SLP131
         T01830128
         
01Z KTXK 230053Z 00000KT 10SM CLR 22/12 A2991 RMK AO2 SLP125
         T02220117
         
00Z KTXK 222353Z 31005KT 10SM CLR 26/11 A2991 RMK AO2 SLP126 T02610111
         10272 20239 56010
         
***** Today's Observations (Above) *****


23Z KTXK 222253Z 00000KT 10SM FEW060 27/13 A2992 RMK AO2 SLP127
         T02720128
         
22Z KTXK 222153Z VRB03KT 10SM BKN050 27/13 A2993 RMK AO2 SLP131
         T02670128
         
***** Yesterday's Observations (Above) *****


Back to Main Page
http://www.srh.noaa.gov/lzk/qfcst.php

USA.gov is the U.S. government's official web portal to all federal, state and local government web resources and services.